Time;durP1;ratioP1;P1;durP2;ratioP2;P2;SDS_P1;SDS_P2;PMS_P1;PMS_P2;Temp;Humidity;BMP_temperature;BMP_pressure;BME280_temperature;BME280_humidity;BME280_pressure;Samples;Min_cycle;Max_cycle;Signal;HPM_P1;HPM_P2
2023/07/03 00:00:50;;;;;;;3.17;2.40;;;;;;;;;;4931250;29;20030;-61
2023/07/03 00:03:17;;;;;;;5.60;3.33;;;;;;;;;;4931128;29;20035;-59
2023/07/03 00:05:44;;;;;;;5.38;2.13;;;;;;;;;;4933859;29;20510;-60
2023/07/03 00:08:15;;;;;;;4.38;2.90;;;;;;;;;;4936628;29;20071;-60
2023/07/03 00:10:42;;;;;;;6.97;2.97;;;;;;;;;;4936381;29;20051;-59
2023/07/03 00:13:10;;;;;;;4.72;2.22;;;;;;;;;;4936635;29;20035;-59
2023/07/03 00:15:37;;;;;;;4.55;2.70;;;;;;;;;;4919109;29;20027;-60
2023/07/03 00:18:04;;;;;;;7.72;2.28;;;;;;;;;;4932678;29;20028;-60
2023/07/03 00:20:31;;;;;;;4.50;2.13;;;;;;;;;;4931085;29;20039;-60
2023/07/03 00:22:58;;;;;;;4.00;2.58;;;;;;;;;;4930932;29;20135;-60
2023/07/03 00:25:25;;;;;;;3.90;2.08;;;;;;;;;;4930925;29;20103;-59
2023/07/03 00:27:53;;;;;;;2.92;1.95;;;;;;;;;;4933471;29;20112;-60
2023/07/03 00:30:20;;;;;;;6.82;2.47;;;;;;;;;;4936005;29;20035;-60
2023/07/03 00:32:47;;;;;;;2.83;2.00;;;;;;;;;;4935788;29;20099;-60
2023/07/03 00:35:14;;;;;;;2.95;2.15;;;;;;;;;;4935586;29;20356;-60
2023/07/03 00:37:41;;;;;;;2.30;1.95;;;;;;;;;;4936089;29;20518;-60
2023/07/03 00:40:10;;;;;;;4.60;2.53;;;;;;;;;;4933246;29;20087;-60
2023/07/03 00:42:37;;;;;;;2.85;1.73;;;;;;;;;;4930341;29;20053;-60
2023/07/03 00:45:05;;;;;;;3.97;1.88;;;;;;;;;;4930688;29;20040;-60
2023/07/03 00:47:32;;;;;;;3.28;1.95;;;;;;;;;;4930555;29;20051;-59
2023/07/03 00:49:59;;;;;;;4.17;2.83;;;;;;;;;;4931967;29;20036;-60
2023/07/03 00:52:26;;;;;;;3.92;2.95;;;;;;;;;;4935216;29;20110;-60
2023/07/03 00:54:55;;;;;;;5.95;2.97;;;;;;;;;;4918810;29;20027;-59
2023/07/03 00:57:23;;;;;;;13.00;2.67;;;;;;;;;;4935605;29;20043;-60
2023/07/03 00:59:50;;;;;;;3.13;1.73;;;;;;;;;;4935197;29;20031;-60
2023/07/03 01:02:20;;;;;;;3.95;2.90;;;;;;;;;;4933479;29;20379;-59
2023/07/03 01:04:52;;;;;;;7.78;3.20;;;;;;;;;;4929733;29;20423;-60
2023/07/03 01:07:28;;;;;;;5.77;3.13;;;;;;;;;;4930066;29;20053;-60
2023/07/03 01:09:57;;;;;;;3.80;2.63;;;;;;;;;;4930172;29;20035;-60
2023/07/03 01:12:25;;;;;;;8.30;3.37;;;;;;;;;;4931514;29;20031;-59
2023/07/03 01:14:53;;;;;;;7.27;3.57;;;;;;;;;;4935309;29;20379;-60
2023/07/03 01:17:20;;;;;;;4.03;2.37;;;;;;;;;;4935307;29;20111;-60
2023/07/03 01:19:48;;;;;;;4.17;3.40;;;;;;;;;;4935342;29;20074;-60
2023/07/03 01:22:20;;;;;;;2.83;2.27;;;;;;;;;;4935098;29;20506;-59
2023/07/03 01:24:59;;;;;;;2.50;1.90;;;;;;;;;;4932677;29;20023;-60
2023/07/03 01:27:30;;;;;;;4.50;2.03;;;;;;;;;;4930042;29;20024;-60
2023/07/03 01:29:57;;;;;;;2.23;1.63;;;;;;;;;;4929626;29;20020;-59
2023/07/03 01:32:27;;;;;;;6.30;3.43;;;;;;;;;;4929919;29;20027;-59
2023/07/03 01:34:55;;;;;;;7.83;3.23;;;;;;;;;;4932047;29;20023;-61
2023/07/03 01:37:26;;;;;;;18.03;3.17;;;;;;;;;;4918028;29;20032;-61
2023/07/03 01:39:54;;;;;;;3.80;2.60;;;;;;;;;;4935170;29;20107;-61
2023/07/03 01:42:25;;;;;;;4.00;2.53;;;;;;;;;;4934835;29;20483;-61
2023/07/03 01:44:51;;;;;;;3.80;2.80;;;;;;;;;;4934515;29;20052;-61
2023/07/03 01:47:18;;;;;;;8.10;2.93;;;;;;;;;;4932378;29;20031;-60
2023/07/03 01:49:45;;;;;;;4.30;2.97;;;;;;;;;;4929703;29;20095;-61
2023/07/03 01:52:20;;;;;;;8.87;2.17;;;;;;;;;;4929282;29;20042;-61
2023/07/03 01:54:50;;;;;;;2.40;1.90;;;;;;;;;;4929808;29;20031;-61
2023/07/03 01:57:20;;;;;;;3.50;1.83;;;;;;;;;;4931826;29;20112;-61
2023/07/03 01:59:49;;;;;;;2.23;1.90;;;;;;;;;;4934809;29;20032;-60
2023/07/03 02:02:18;;;;;;;3.20;2.57;;;;;;;;;;4934832;29;20039;-60
2023/07/03 02:04:57;;;;;;;3.30;2.37;;;;;;;;;;4938248;29;20045;-61
2023/07/03 02:07:25;;;;;;;4.17;2.03;;;;;;;;;;4938377;29;20114;-61
2023/07/03 02:09:51;;;;;;;5.90;2.37;;;;;;;;;;4935811;29;20039;-60
2023/07/03 02:12:18;;;;;;;11.53;3.17;;;;;;;;;;4933449;29;20052;-60
2023/07/03 02:14:46;;;;;;;6.10;4.50;;;;;;;;;;4933329;29;20078;-61
2023/07/03 02:17:12;;;;;;;7.67;3.77;;;;;;;;;;4933107;29;20028;-60
2023/07/03 02:19:39;;;;;;;13.57;6.70;;;;;;;;;;4935596;29;20032;-60
2023/07/03 02:22:06;;;;;;;19.83;6.33;;;;;;;;;;4938057;29;20050;-60
2023/07/03 02:24:34;;;;;;;18.30;7.63;;;;;;;;;;4938230;29;20024;-61
2023/07/03 02:27:01;;;;;;;18.60;10.47;;;;;;;;;;4938493;29;20046;-61
2023/07/03 02:29:27;;;;;;;7.80;4.83;;;;;;;;;;4938365;29;20031;-60
2023/07/03 02:31:54;;;;;;;9.73;4.83;;;;;;;;;;4935862;29;20036;-60
2023/07/03 02:34:21;;;;;;;5.33;3.40;;;;;;;;;;4932978;29;20038;-60
2023/07/03 02:36:49;;;;;;;6.03;4.40;;;;;;;;;;4933034;29;20027;-60
2023/07/03 02:39:16;;;;;;;6.43;4.50;;;;;;;;;;4932665;29;20035;-61
2023/07/03 02:41:43;;;;;;;6.13;3.37;;;;;;;;;;4934000;29;20063;-61
2023/07/03 02:44:10;;;;;;;4.20;2.67;;;;;;;;;;4937769;29;20024;-60
2023/07/03 02:46:36;;;;;;;4.77;2.80;;;;;;;;;;4937514;29;20518;-60
2023/07/03 02:49:03;;;;;;;11.17;4.90;;;;;;;;;;4937591;29;20035;-60
2023/07/03 02:51:30;;;;;;;7.23;4.37;;;;;;;;;;4937901;29;20036;-60
2023/07/03 02:53:57;;;;;;;7.97;3.80;;;;;;;;;;4936154;29;20031;-61
2023/07/03 02:56:23;;;;;;;14.00;4.37;;;;;;;;;;4932180;29;20519;-61
2023/07/03 02:58:50;;;;;;;8.33;4.27;;;;;;;;;;4932771;29;20027;-60
2023/07/03 03:01:17;;;;;;;9.50;4.27;;;;;;;;;;4932148;29;20043;-60
2023/07/03 03:03:44;;;;;;;6.90;3.60;;;;;;;;;;4933432;29;20058;-60
2023/07/03 03:06:11;;;;;;;4.90;2.83;;;;;;;;;;4937686;29;20031;-60
2023/07/03 03:08:38;;;;;;;5.20;3.10;;;;;;;;;;4937526;29;20030;-60
2023/07/03 03:11:05;;;;;;;7.83;4.40;;;;;;;;;;4937720;29;20027;-60
2023/07/03 03:13:31;;;;;;;3.33;2.33;;;;;;;;;;4936813;29;20145;-61
2023/07/03 03:15:58;;;;;;;3.63;2.40;;;;;;;;;;4936082;29;20067;-61
2023/07/03 03:18:25;;;;;;;3.07;2.27;;;;;;;;;;4932478;29;20020;-60
2023/07/03 03:20:52;;;;;;;9.17;3.90;;;;;;;;;;4932212;29;20058;-60
2023/07/03 03:23:18;;;;;;;10.47;4.03;;;;;;;;;;4931893;29;20468;-61
2023/07/03 03:25:46;;;;;;;5.53;3.50;;;;;;;;;;4931999;29;20032;-61
2023/07/03 03:28:12;;;;;;;7.97;3.97;;;;;;;;;;4937411;29;20587;-61
2023/07/03 03:30:39;;;;;;;7.77;3.20;;;;;;;;;;4937229;29;20032;-61
2023/07/03 03:33:06;;;;;;;8.87;3.40;;;;;;;;;;4936949;29;20034;-61
2023/07/03 03:35:33;;;;;;;5.27;3.60;;;;;;;;;;4937280;29;20016;-61
2023/07/03 03:37:59;;;;;;;7.20;3.20;;;;;;;;;;4936972;29;20640;-61
2023/07/03 03:40:26;;;;;;;4.43;3.13;;;;;;;;;;4931699;29;20039;-61
2023/07/03 03:42:53;;;;;;;6.37;3.83;;;;;;;;;;4931956;29;20059;-60
2023/07/03 03:45:20;;;;;;;3.70;3.07;;;;;;;;;;4931393;29;20031;-60
2023/07/03 03:47:48;;;;;;;5.87;3.87;;;;;;;;;;4919714;29;20991;-61
2023/07/03 03:50:15;;;;;;;5.50;3.50;;;;;;;;;;4910294;29;20051;-61
2023/07/03 03:52:42;;;;;;;9.07;4.17;;;;;;;;;;4926775;29;20472;-61
2023/07/03 03:55:09;;;;;;;7.00;3.30;;;;;;;;;;4935484;29;20036;-62
2023/07/03 03:57:36;;;;;;;8.67;3.67;;;;;;;;;;4917918;29;20403;-60
2023/07/03 04:00:03;;;;;;;5.47;3.40;;;;;;;;;;4925448;29;20028;-60
2023/07/03 04:02:30;;;;;;;5.93;3.93;;;;;;;;;;4931862;29;20511;-60
2023/07/03 04:04:57;;;;;;;8.07;3.87;;;;;;;;;;4920781;29;20460;-61
2023/07/03 04:07:24;;;;;;;9.10;4.37;;;;;;;;;;4912393;29;20491;-61
2023/07/03 04:09:54;;;;;;;6.37;3.57;;;;;;;;;;4912782;29;20024;-60
2023/07/03 04:12:20;;;;;;;4.80;3.30;;;;;;;;;;4922578;29;20624;-61
2023/07/03 04:14:49;;;;;;;5.27;3.33;;;;;;;;;;4936680;29;20031;-61
2023/07/03 04:17:16;;;;;;;9.87;3.67;;;;;;;;;;4936136;29;20051;-61
2023/07/03 04:19:45;;;;;;;4.17;3.60;;;;;;;;;;4934478;29;20027;-61
2023/07/03 04:22:12;;;;;;;6.83;4.07;;;;;;;;;;4924715;29;20036;-61
2023/07/03 04:24:39;;;;;;;5.30;3.97;;;;;;;;;;4931355;29;20094;-59
2023/07/03 04:27:08;;;;;;;4.90;3.70;;;;;;;;;;4930675;29;20038;-60
2023/07/03 04:29:34;;;;;;;4.10;3.03;;;;;;;;;;4930767;29;20031;-61
2023/07/03 04:32:02;;;;;;;10.77;3.87;;;;;;;;;;4931260;29;20055;-60
2023/07/03 04:34:29;;;;;;;7.73;3.40;;;;;;;;;;4917320;29;20390;-60
2023/07/03 04:36:55;;;;;;;4.97;3.77;;;;;;;;;;4935763;29;20032;-60
2023/07/03 04:39:24;;;;;;;7.30;4.07;;;;;;;;;;4936106;29;20039;-60
2023/07/03 04:41:53;;;;;;;3.47;2.83;;;;;;;;;;4935523;29;20164;-60
2023/07/03 04:44:23;;;;;;;12.30;3.27;;;;;;;;;;4936085;29;20442;-59
2023/07/03 04:46:49;;;;;;;7.50;4.03;;;;;;;;;;4931866;29;20059;-60
2023/07/03 04:49:16;;;;;;;8.20;4.50;;;;;;;;;;4930933;29;20091;-60
2023/07/03 04:51:43;;;;;;;6.83;4.53;;;;;;;;;;4930192;29;20110;-61
2023/07/03 04:54:10;;;;;;;5.57;4.20;;;;;;;;;;4930415;29;20371;-60
2023/07/03 04:56:42;;;;;;;5.17;3.60;;;;;;;;;;4926235;29;20027;-60
2023/07/03 04:59:09;;;;;;;6.67;4.60;;;;;;;;;;4935841;29;20439;-60
2023/07/03 05:01:36;;;;;;;6.27;4.43;;;;;;;;;;4935552;29;20422;-61
2023/07/03 05:04:03;;;;;;;4.97;3.80;;;;;;;;;;4935548;29;20099;-60
2023/07/03 05:06:30;;;;;;;5.40;4.17;;;;;;;;;;4935165;29;20039;-60
2023/07/03 05:08:57;;;;;;;8.07;3.43;;;;;;;;;;4914518;29;20039;-61
2023/07/03 05:11:23;;;;;;;4.80;3.73;;;;;;;;;;4930273;29;20035;-59
2023/07/03 05:13:50;;;;;;;5.27;3.43;;;;;;;;;;4929849;29;20028;-61
2023/07/03 05:16:17;;;;;;;5.70;3.47;;;;;;;;;;4929036;29;20038;-60
2023/07/03 05:18:43;;;;;;;7.60;4.20;;;;;;;;;;4932027;29;20050;-61
2023/07/03 05:21:11;;;;;;;6.97;4.80;;;;;;;;;;4934408;29;20044;-61
2023/07/03 05:23:37;;;;;;;5.07;4.07;;;;;;;;;;4935381;29;20554;-61
2023/07/03 05:26:04;;;;;;;7.03;4.83;;;;;;;;;;4935122;29;20502;-61
2023/07/03 05:28:31;;;;;;;11.17;3.87;;;;;;;;;;4934995;29;20079;-61
2023/07/03 05:30:58;;;;;;;6.13;3.90;;;;;;;;;;4932061;29;20032;-60
2023/07/03 05:33:25;;;;;;;4.37;3.30;;;;;;;;;;4929697;29;20028;-60
2023/07/03 05:35:52;;;;;;;5.47;3.97;;;;;;;;;;4929913;29;20514;-60
2023/07/03 05:38:19;;;;;;;6.30;3.83;;;;;;;;;;4930022;29;20118;-60
2023/07/03 05:40:49;;;;;;;7.80;4.37;;;;;;;;;;4932072;29;20024;-60
2023/07/03 05:43:16;;;;;;;10.40;4.50;;;;;;;;;;4934647;29;20039;-60
2023/07/03 05:45:43;;;;;;;4.43;3.17;;;;;;;;;;4934880;29;20044;-60
2023/07/03 05:48:10;;;;;;;5.70;4.43;;;;;;;;;;4934625;29;20028;-61
2023/07/03 05:50:36;;;;;;;8.37;4.63;;;;;;;;;;4935074;29;20111;-60
2023/07/03 05:53:03;;;;;;;4.23;3.33;;;;;;;;;;4932084;29;20032;-60
2023/07/03 05:55:30;;;;;;;5.40;3.77;;;;;;;;;;4929941;29;20455;-60
2023/07/03 05:57:56;;;;;;;6.20;4.30;;;;;;;;;;4929396;29;20483;-60
2023/07/03 06:00:24;;;;;;;6.50;4.43;;;;;;;;;;4929753;29;20063;-61
2023/07/03 06:02:54;;;;;;;4.00;3.40;;;;;;;;;;4931211;29;20035;-60
2023/07/03 06:05:21;;;;;;;5.77;4.10;;;;;;;;;;4934907;29;20063;-60
2023/07/03 06:07:48;;;;;;;19.47;4.97;;;;;;;;;;4934660;29;20123;-61
2023/07/03 06:10:15;;;;;;;4.67;3.57;;;;;;;;;;4934799;29;20028;-60
2023/07/03 06:12:45;;;;;;;6.20;4.30;;;;;;;;;;4917933;29;20028;-60
2023/07/03 06:15:12;;;;;;;19.07;4.90;;;;;;;;;;4908166;29;20468;-61
2023/07/03 06:17:40;;;;;;;6.83;4.50;;;;;;;;;;4898538;29;20519;-61
2023/07/03 06:20:07;;;;;;;4.47;3.60;;;;;;;;;;4927574;29;20043;-60
2023/07/03 06:22:34;;;;;;;4.37;3.57;;;;;;;;;;4910734;29;20021;-60
2023/07/03 06:25:01;;;;;;;7.53;3.57;;;;;;;;;;4911991;29;20084;-60
2023/07/03 06:27:27;;;;;;;6.00;4.20;;;;;;;;;;4915742;29;20036;-60
2023/07/03 06:29:54;;;;;;;6.23;4.13;;;;;;;;;;4934583;29;20032;-60
2023/07/03 06:32:21;;;;;;;6.60;4.50;;;;;;;;;;4934553;29;20034;-59
2023/07/03 06:34:47;;;;;;;7.77;5.60;;;;;;;;;;4934398;29;20383;-60
2023/07/03 06:37:14;;;;;;;4.57;3.87;;;;;;;;;;4933020;29;20106;-60
2023/07/03 06:39:41;;;;;;;5.73;4.40;;;;;;;;;;4929467;29;20028;-60
2023/07/03 06:42:09;;;;;;;6.67;4.67;;;;;;;;;;4929638;29;20797;-60
2023/07/03 06:44:36;;;;;;;5.73;4.23;;;;;;;;;;4929017;29;20032;-60
2023/07/03 06:47:03;;;;;;;4.67;3.67;;;;;;;;;;4929725;29;20032;-61
2023/07/03 06:49:30;;;;;;;6.60;4.53;;;;;;;;;;4935730;29;20032;-60
2023/07/03 06:51:57;;;;;;;6.37;4.30;;;;;;;;;;4937830;29;20034;-60
2023/07/03 06:54:24;;;;;;;5.63;4.47;;;;;;;;;;4920044;29;20475;-60
2023/07/03 06:56:50;;;;;;;6.63;4.70;;;;;;;;;;4938016;29;20035;-60
2023/07/03 06:59:17;;;;;;;11.70;3.77;;;;;;;;;;4937354;29;20131;-60
2023/07/03 07:01:43;;;;;;;4.93;3.60;;;;;;;;;;4932757;29;20032;-60
2023/07/03 07:04:11;;;;;;;6.63;4.67;;;;;;;;;;4932541;29;20415;-60
2023/07/03 07:06:39;;;;;;;9.70;5.23;;;;;;;;;;4932651;29;20087;-61
2023/07/03 07:09:05;;;;;;;6.83;4.60;;;;;;;;;;4932283;29;20508;-60
2023/07/03 07:11:34;;;;;;;5.43;4.07;;;;;;;;;;4937405;29;20035;-60
2023/07/03 07:14:02;;;;;;;10.57;5.53;;;;;;;;;;4937423;29;20087;-59
2023/07/03 07:16:34;;;;;;;5.77;4.83;;;;;;;;;;4937936;29;20046;-60
2023/07/03 07:19:01;;;;;;;7.40;4.00;;;;;;;;;;4937230;29;20107;-61
2023/07/03 07:21:30;;;;;;;5.07;3.67;;;;;;;;;;4937363;29;20511;-60
2023/07/03 07:23:58;;;;;;;7.10;4.80;;;;;;;;;;4931948;29;20082;-60
2023/07/03 07:26:25;;;;;;;5.50;4.50;;;;;;;;;;4931979;29;20403;-60
2023/07/03 07:28:52;;;;;;;5.80;4.27;;;;;;;;;;4932163;29;20034;-60
2023/07/03 07:31:23;;;;;;;5.20;4.00;;;;;;;;;;4932169;29;20573;-59
2023/07/03 07:33:49;;;;;;;5.67;4.77;;;;;;;;;;4936737;29;20046;-60
2023/07/03 07:36:17;;;;;;;5.83;4.47;;;;;;;;;;4937385;29;20028;-60
2023/07/03 07:38:43;;;;;;;9.50;4.57;;;;;;;;;;4937320;29;20028;-59
2023/07/03 07:41:10;;;;;;;6.07;4.57;;;;;;;;;;4936682;29;20032;-60
2023/07/03 07:43:36;;;;;;;5.40;4.07;;;;;;;;;;4936820;29;20091;-60
2023/07/03 07:46:03;;;;;;;6.87;5.33;;;;;;;;;;4931824;29;20054;-60
2023/07/03 07:48:31;;;;;;;6.07;3.80;;;;;;;;;;4931497;29;20024;-60
2023/07/03 07:50:58;;;;;;;10.93;5.37;;;;;;;;;;4914768;29;20031;-60
2023/07/03 07:53:26;;;;;;;4.90;3.90;;;;;;;;;;4931745;29;20384;-60
2023/07/03 07:55:58;;;;;;;8.77;4.70;;;;;;;;;;4936112;29;20028;-60
2023/07/03 07:58:25;;;;;;;5.20;3.57;;;;;;;;;;4936222;29;20060;-60
2023/07/03 08:00:52;;;;;;;6.90;5.17;;;;;;;;;;4935726;29;20093;-60
2023/07/03 08:03:19;;;;;;;4.80;3.63;;;;;;;;;;4936928;29;20035;-60
2023/07/03 08:05:46;;;;;;;5.47;3.73;;;;;;;;;;4936690;29;20036;-60
2023/07/03 08:08:12;;;;;;;7.50;4.53;;;;;;;;;;4914876;29;20491;-60
2023/07/03 08:10:40;;;;;;;6.37;4.83;;;;;;;;;;4931373;29;20031;-60
2023/07/03 08:13:07;;;;;;;5.63;4.63;;;;;;;;;;4931158;29;20024;-60
2023/07/03 08:15:34;;;;;;;7.30;4.90;;;;;;;;;;4931176;29;20371;-60
2023/07/03 08:18:01;;;;;;;14.73;5.03;;;;;;;;;;4934935;29;20028;-60
2023/07/03 08:20:27;;;;;;;9.90;4.57;;;;;;;;;;4936490;29;20032;-60
2023/07/03 08:22:54;;;;;;;5.10;4.13;;;;;;;;;;4936415;29;20383;-59
2023/07/03 08:25:21;;;;;;;9.10;4.83;;;;;;;;;;4936354;29;20126;-60
2023/07/03 08:27:48;;;;;;;7.43;4.77;;;;;;;;;;4936031;29;20040;-60
2023/07/03 08:30:14;;;;;;;5.67;4.50;;;;;;;;;;4931734;29;20035;-60
2023/07/03 08:32:43;;;;;;;9.70;5.60;;;;;;;;;;4930842;29;20095;-60
2023/07/03 08:35:10;;;;;;;6.67;4.60;;;;;;;;;;4930975;29;20093;-60
2023/07/03 08:37:36;;;;;;;6.80;5.07;;;;;;;;;;4930660;29;20035;-59
2023/07/03 08:40:05;;;;;;;9.93;5.13;;;;;;;;;;4934000;29;20114;-60
2023/07/03 08:42:42;;;;;;;7.40;5.03;;;;;;;;;;4935993;29;20032;-60
2023/07/03 08:45:11;;;;;;;8.20;5.27;;;;;;;;;;4935423;29;20028;-60
2023/07/03 08:47:39;;;;;;;4.30;3.23;;;;;;;;;;4935948;29;20767;-59
2023/07/03 08:50:07;;;;;;;7.47;5.40;;;;;;;;;;4935791;29;20020;-59
2023/07/03 08:52:38;;;;;;;6.43;5.00;;;;;;;;;;4914712;29;20036;-60
2023/07/03 08:55:07;;;;;;;8.20;5.27;;;;;;;;;;4930672;29;20379;-59
2023/07/03 08:57:34;;;;;;;5.70;3.97;;;;;;;;;;4930239;29;20054;-59
2023/07/03 09:00:03;;;;;;;7.00;4.13;;;;;;;;;;4929097;29;20387;-60
2023/07/03 09:02:45;;;;;;;6.50;4.50;;;;;;;;;;4932697;29;20041;-60
2023/07/03 09:05:21;;;;;;;11.63;5.67;;;;;;;;;;4934952;29;20023;-59
2023/07/03 09:07:53;;;;;;;7.10;5.03;;;;;;;;;;4934664;29;20034;-59
2023/07/03 09:10:40;;;;;;;11.20;5.00;;;;;;;;;;4934701;29;20031;-59
2023/07/03 09:13:13;;;;;;;6.03;4.20;;;;;;;;;;4933933;29;20118;-59
2023/07/03 09:15:48;;;;;;;5.37;4.47;;;;;;;;;;4929545;29;20032;-59
2023/07/03 09:18:17;;;;;;;6.30;3.80;;;;;;;;;;4929302;29;20055;-60
2023/07/03 09:20:45;;;;;;;5.33;3.97;;;;;;;;;;4929362;29;20082;-60
2023/07/03 09:23:11;;;;;;;8.33;4.33;;;;;;;;;;4929421;29;20450;-60
2023/07/03 09:25:50;;;;;;;31.00;5.03;;;;;;;;;;4934382;29;20027;-60
2023/07/03 09:28:17;;;;;;;7.03;4.03;;;;;;;;;;4934453;29;20020;-59
2023/07/03 09:30:44;;;;;;;5.90;4.17;;;;;;;;;;4934191;29;20024;-60
2023/07/03 09:33:11;;;;;;;8.97;4.60;;;;;;;;;;4934129;29;20379;-60
2023/07/03 09:35:42;;;;;;;10.87;6.33;;;;;;;;;;4933592;29;20024;-60
2023/07/03 09:38:16;;;;;;;14.37;5.73;;;;;;;;;;4929333;29;20107;-60
2023/07/03 09:40:44;;;;;;;7.47;4.03;;;;;;;;;;4929244;29;20027;-60
2023/07/03 09:43:27;;;;;;;6.93;4.93;;;;;;;;;;4929050;29;20032;-60
2023/07/03 09:46:10;;;;;;;6.27;4.90;;;;;;;;;;4929737;29;20035;-60
2023/07/03 09:48:36;;;;;;;5.30;3.70;;;;;;;;;;4934311;29;20471;-59
2023/07/03 09:51:26;;;;;;;8.00;5.73;;;;;;;;;;4934428;29;20087;-59
2023/07/03 09:53:56;;;;;;;4.40;3.43;;;;;;;;;;4926835;29;20051;-59
2023/07/03 09:56:24;;;;;;;4.00;3.23;;;;;;;;;;4851689;29;2405759;-60
2023/07/03 09:58:54;;;;;;;8.67;4.50;;;;;;;;;;4931880;29;20151;-59
2023/07/03 10:01:23;;;;;;;9.50;3.30;;;;;;;;;;4929351;29;20040;-59
2023/07/03 10:04:01;;;;;;;4.60;4.10;;;;;;;;;;4929473;29;20129;-59
2023/07/03 10:06:28;;;;;;;5.17;3.80;;;;;;;;;;4929767;29;20044;-59
2023/07/03 10:08:59;;;;;;;7.07;5.10;;;;;;;;;;4932234;29;20031;-60
2023/07/03 10:11:30;;;;;;;8.03;4.47;;;;;;;;;;4934673;29;20035;-60
2023/07/03 10:13:56;;;;;;;6.87;5.17;;;;;;;;;;4935138;29;20431;-59
2023/07/03 10:16:24;;;;;;;6.60;4.33;;;;;;;;;;4934200;29;20031;-59
2023/07/03 10:18:55;;;;;;;5.87;4.37;;;;;;;;;;4935015;29;20023;-59
2023/07/03 10:21:22;;;;;;;7.70;5.53;;;;;;;;;;4931300;29;20039;-59
2023/07/03 10:23:50;;;;;;;5.33;3.93;;;;;;;;;;4929792;29;20495;-59
2023/07/03 10:26:17;;;;;;;6.10;4.00;;;;;;;;;;4933047;29;20034;-59
2023/07/03 10:28:49;;;;;;;9.47;5.17;;;;;;;;;;4933334;29;20111;-59
2023/07/03 10:31:20;;;;;;;7.10;4.93;;;;;;;;;;4935595;29;20024;-59
2023/07/03 10:33:48;;;;;;;8.17;5.57;;;;;;;;;;4938188;29;20036;-60
2023/07/03 10:36:21;;;;;;;4.90;3.70;;;;;;;;;;4937950;29;20038;-59
2023/07/03 10:38:52;;;;;;;5.60;4.57;;;;;;;;;;4938358;29;20024;-60
2023/07/03 10:41:23;;;;;;;7.13;5.00;;;;;;;;;;4938422;29;20431;-59
2023/07/03 10:43:56;;;;;;;6.00;4.53;;;;;;;;;;4934113;29;20032;-59
2023/07/03 10:46:38;;;;;;;8.40;4.77;;;;;;;;;;4932656;29;20071;-59
2023/07/03 10:49:07;;;;;;;7.67;4.30;;;;;;;;;;4933021;29;20055;-59
2023/07/03 10:51:33;;;;;;;5.63;4.27;;;;;;;;;;4932725;29;20052;-59
2023/07/03 10:54:05;;;;;;;8.03;4.30;;;;;;;;;;4936117;29;20035;-59
2023/07/03 10:56:39;;;;;;;6.33;4.00;;;;;;;;;;4937628;29;20427;-60
2023/07/03 10:59:15;;;;;;;6.72;4.00;;;;;;;;;;4937917;29;20035;-59
2023/07/03 11:01:51;;;;;;;5.50;4.20;;;;;;;;;;4937756;29;20036;-59
2023/07/03 11:04:19;;;;;;;8.27;4.20;;;;;;;;;;4937573;29;20054;-59
2023/07/03 11:07:11;;;;;;;11.60;4.77;;;;;;;;;;4932297;29;20032;-59
2023/07/03 11:09:44;;;;;;;10.10;4.13;;;;;;;;;;4930123;29;20048;-59
2023/07/03 11:12:17;;;;;;;6.43;4.33;;;;;;;;;;4932459;29;20079;-59
2023/07/03 11:14:44;;;;;;;7.77;3.77;;;;;;;;;;4932526;29;20483;-59
2023/07/03 11:17:30;;;;;;;6.30;4.43;;;;;;;;;;4937424;29;20356;-59
2023/07/03 11:19:56;;;;;;;6.07;3.70;;;;;;;;;;4937487;29;20091;-59
2023/07/03 11:22:29;;;;;;;5.83;4.27;;;;;;;;;;4937595;29;20528;-59
2023/07/03 11:24:58;;;;;;;3.73;2.93;;;;;;;;;;4937156;29;20028;-59
2023/07/03 11:27:36;;;;;;;9.43;5.17;;;;;;;;;;4935601;29;20035;-59
2023/07/03 11:30:03;;;;;;;4.37;3.33;;;;;;;;;;4932173;29;20518;-59
2023/07/03 11:32:33;;;;;;;8.47;4.70;;;;;;;;;;4932689;29;20415;-60
2023/07/03 11:35:01;;;;;;;7.00;4.57;;;;;;;;;;4931846;29;20451;-59
2023/07/03 11:37:35;;;;;;;6.90;4.73;;;;;;;;;;4932734;29;20032;-59
2023/07/03 11:40:20;;;;;;;9.13;3.83;;;;;;;;;;4937177;29;20023;-59
2023/07/03 11:42:47;;;;;;;5.30;3.83;;;;;;;;;;4937081;29;20030;-59
2023/07/03 11:45:26;;;;;;;7.30;4.70;;;;;;;;;;4937049;29;20032;-59
2023/07/03 11:47:53;;;;;;;7.30;5.27;;;;;;;;;;4937054;29;20063;-60
2023/07/03 11:50:30;;;;;;;6.23;4.07;;;;;;;;;;4934410;29;20091;-59
2023/07/03 11:52:57;;;;;;;5.57;4.20;;;;;;;;;;4931909;29;20083;-59
2023/07/03 11:55:34;;;;;;;7.67;4.43;;;;;;;;;;4931411;29;20111;-59
2023/07/03 11:58:02;;;;;;;6.07;3.90;;;;;;;;;;4931178;29;20115;-59
2023/07/03 12:00:30;;;;;;;5.20;4.00;;;;;;;;;;4934293;29;20057;-60
2023/07/03 12:02:58;;;;;;;6.20;4.77;;;;;;;;;;4936803;29;20015;-59
2023/07/03 12:05:44;;;;;;;4.40;3.57;;;;;;;;;;4936690;29;20027;-61
2023/07/03 12:08:14;;;;;;;10.30;5.03;;;;;;;;;;4898331;29;20025;-59
2023/07/03 12:10:43;;;;;;;4.97;3.80;;;;;;;;;;4898829;29;20136;-59
2023/07/03 12:13:28;;;;;;;7.63;4.60;;;;;;;;;;4894915;29;20037;-59
2023/07/03 12:15:59;;;;;;;5.82;3.97;;;;;;;;;;4900675;29;20023;-59
2023/07/03 12:18:26;;;;;;;9.27;6.50;;;;;;;;;;4930799;29;20036;-59
2023/07/03 12:21:12;;;;;;;13.27;8.77;;;;;;;;;;4931389;29;20407;-59
2023/07/03 12:23:44;;;;;;;7.30;4.83;;;;;;;;;;4935925;29;20034;-59
2023/07/03 12:26:12;;;;;;;7.43;5.37;;;;;;;;;;4936160;29;20043;-59
2023/07/03 12:28:39;;;;;;;7.33;5.33;;;;;;;;;;4935976;29;20023;-59
2023/07/03 12:31:16;;;;;;;8.13;6.10;;;;;;;;;;4936213;29;20391;-59
2023/07/03 12:33:49;;;;;;;16.23;5.90;;;;;;;;;;4935851;29;20024;-58
2023/07/03 12:36:25;;;;;;;8.40;5.30;;;;;;;;;;4930677;29;20035;-59
2023/07/03 12:38:52;;;;;;;8.07;5.27;;;;;;;;;;4930809;29;20028;-59
2023/07/03 12:41:23;;;;;;;5.83;3.60;;;;;;;;;;4930802;29;20126;-59
2023/07/03 12:43:50;;;;;;;7.07;3.70;;;;;;;;;;4931016;29;20032;-59
2023/07/03 12:46:25;;;;;;;7.43;5.23;;;;;;;;;;4935402;29;20039;-59
2023/07/03 12:49:01;;;;;;;8.77;4.80;;;;;;;;;;4935837;29;20031;-59
2023/07/03 12:51:28;;;;;;;6.10;3.67;;;;;;;;;;4935211;29;20603;-59
2023/07/03 12:53:54;;;;;;;6.93;5.53;;;;;;;;;;4935964;29;20424;-59
2023/07/03 12:56:21;;;;;;;6.10;4.40;;;;;;;;;;4934320;29;20031;-59
2023/07/03 12:58:48;;;;;;;5.93;4.40;;;;;;;;;;4930556;29;20055;-60
2023/07/03 13:01:15;;;;;;;5.80;4.50;;;;;;;;;;4913807;29;20391;-59
2023/07/03 13:03:43;;;;;;;7.93;3.97;;;;;;;;;;4930623;29;20427;-59
2023/07/03 13:06:16;;;;;;;11.37;4.83;;;;;;;;;;4930334;29;20475;-59
2023/07/03 13:08:45;;;;;;;6.07;4.30;;;;;;;;;;4935713;29;20023;-59
2023/07/03 13:11:12;;;;;;;5.77;4.30;;;;;;;;;;4935443;29;20055;-59
2023/07/03 13:13:39;;;;;;;5.87;4.10;;;;;;;;;;4935445;29;20039;-59
2023/07/03 13:16:16;;;;;;;5.97;4.67;;;;;;;;;;4934919;29;20403;-59
2023/07/03 13:18:58;;;;;;;8.47;4.20;;;;;;;;;;4934034;29;20055;-59
2023/07/03 13:21:25;;;;;;;5.60;4.47;;;;;;;;;;4930231;29;20035;-59
2023/07/03 13:23:51;;;;;;;4.30;3.27;;;;;;;;;;4930139;29;20032;-59
2023/07/03 13:26:22;;;;;;;5.70;4.30;;;;;;;;;;4929769;29;20050;-59
2023/07/03 13:28:58;;;;;;;5.07;3.83;;;;;;;;;;4931310;29;20480;-59
2023/07/03 13:31:26;;;;;;;4.57;3.80;;;;;;;;;;4934791;29;20023;-59
2023/07/03 13:34:07;;;;;;;8.70;5.20;;;;;;;;;;4934711;29;20380;-59
2023/07/03 13:36:39;;;;;;;6.47;4.97;;;;;;;;;;4935354;29;20047;-59
2023/07/03 13:39:18;;;;;;;8.83;6.57;;;;;;;;;;4935075;29;20083;-60
2023/07/03 13:41:45;;;;;;;5.13;4.63;;;;;;;;;;4894286;29;20036;-60
2023/07/03 13:44:14;;;;;;;11.37;6.43;;;;;;;;;;4892101;29;20035;-60
2023/07/03 13:46:42;;;;;;;15.47;7.73;;;;;;;;;;4891810;29;20075;-60
2023/07/03 13:49:09;;;;;;;8.57;6.50;;;;;;;;;;4892165;29;20056;-59
2023/07/03 13:51:37;;;;;;;12.53;8.40;;;;;;;;;;4931697;29;20054;-59
2023/07/03 13:54:05;;;;;;;11.17;6.83;;;;;;;;;;4934745;29;20070;-59
2023/07/03 13:56:35;;;;;;;8.30;6.47;;;;;;;;;;4934913;29;20032;-60
2023/07/03 13:59:03;;;;;;;10.00;6.23;;;;;;;;;;4937197;29;20414;-60
2023/07/03 14:01:31;;;;;;;10.53;6.27;;;;;;;;;;4938088;29;20043;-61
2023/07/03 14:03:58;;;;;;;5.20;4.40;;;;;;;;;;4936308;29;20379;-60
2023/07/03 14:06:24;;;;;;;11.47;5.73;;;;;;;;;;4933643;29;20434;-60
2023/07/03 14:08:51;;;;;;;13.77;7.13;;;;;;;;;;4916461;29;20046;-60
2023/07/03 14:11:18;;;;;;;11.23;5.87;;;;;;;;;;4933046;29;20090;-60
2023/07/03 14:13:46;;;;;;;8.73;5.17;;;;;;;;;;4935878;29;20467;-60
2023/07/03 14:16:13;;;;;;;6.67;5.07;;;;;;;;;;4938185;29;20394;-60
2023/07/03 14:18:40;;;;;;;5.40;4.33;;;;;;;;;;4938756;29;20079;-60
2023/07/03 14:21:09;;;;;;;8.00;5.53;;;;;;;;;;4938581;29;20032;-60
2023/07/03 14:23:36;;;;;;;6.50;5.43;;;;;;;;;;4938585;29;20592;-60
2023/07/03 14:26:03;;;;;;;6.43;5.17;;;;;;;;;;4935232;29;20431;-61
2023/07/03 14:28:30;;;;;;;5.77;4.40;;;;;;;;;;4933247;29;20395;-61
2023/07/03 14:30:57;;;;;;;11.57;4.10;;;;;;;;;;4933318;29;20028;-60
2023/07/03 14:33:24;;;;;;;7.87;5.10;;;;;;;;;;4933117;29;20027;-60
2023/07/03 14:35:51;;;;;;;12.03;5.57;;;;;;;;;;4934706;29;20035;-60
2023/07/03 14:38:17;;;;;;;7.03;5.10;;;;;;;;;;4938476;29;20404;-61
2023/07/03 14:40:44;;;;;;;10.30;6.07;;;;;;;;;;4938151;29;20507;-60
2023/07/03 14:43:11;;;;;;;6.40;5.27;;;;;;;;;;4936856;29;20027;-61
2023/07/03 14:45:38;;;;;;;6.17;4.53;;;;;;;;;;4937676;29;20115;-61
2023/07/03 14:48:05;;;;;;;10.20;4.40;;;;;;;;;;4936212;29;20032;-60
2023/07/03 14:50:32;;;;;;;8.57;4.80;;;;;;;;;;4932495;29;20376;-61